Time;durP1;ratioP1;P1;durP2;ratioP2;P2;SDS_P1;SDS_P2;PMS_P1;PMS_P2;Temp;Humidity;BMP_temperature;BMP_pressure;BME280_temperature;BME280_humidity;BME280_pressure;Samples;Min_cycle;Max_cycle;Signal;HPM_P1;HPM_P2
2022/06/20 00:01:16;;;;;;;10.82;1.77;;;;;;;;;;5006327;28;20221;-61
2022/06/20 00:03:44;;;;;;;9.20;2.10;;;;;;;;;;4996964;28;20231;-61
2022/06/20 00:06:12;;;;;;;9.75;2.10;;;;;;;;;;4993566;28;20249;-61
2022/06/20 00:08:37;;;;;;;11.82;1.92;;;;;;;;;;5009752;28;20232;-61
2022/06/20 00:11:02;;;;;;;7.07;1.70;;;;;;;;;;5010226;28;20536;-61
2022/06/20 00:13:29;;;;;;;8.30;1.65;;;;;;;;;;5011228;28;20212;-61
2022/06/20 00:15:56;;;;;;;9.65;1.90;;;;;;;;;;4995916;28;20272;-61
2022/06/20 00:18:21;;;;;;;7.53;1.50;;;;;;;;;;5006573;28;20271;-61
2022/06/20 00:20:46;;;;;;;12.13;2.30;;;;;;;;;;4991825;28;20695;-61
2022/06/20 00:23:12;;;;;;;10.98;2.30;;;;;;;;;;5005051;28;20259;-61
2022/06/20 00:25:37;;;;;;;8.52;1.65;;;;;;;;;;4995572;28;20605;-61
2022/06/20 00:28:03;;;;;;;10.13;2.30;;;;;;;;;;5019904;28;20695;-61
2022/06/20 00:30:28;;;;;;;11.85;1.98;;;;;;;;;;5012251;28;20217;-61
2022/06/20 00:32:53;;;;;;;9.23;1.80;;;;;;;;;;5015837;28;20213;-61
2022/06/20 00:35:19;;;;;;;12.40;1.70;;;;;;;;;;5004853;28;20250;-61
2022/06/20 00:37:44;;;;;;;10.02;1.75;;;;;;;;;;5005013;28;20200;-61
2022/06/20 00:40:17;;;;;;;7.75;2.03;;;;;;;;;;5013924;28;20247;-61
2022/06/20 00:42:42;;;;;;;11.38;1.80;;;;;;;;;;5014299;28;20811;-60
2022/06/20 00:45:09;;;;;;;11.82;2.70;;;;;;;;;;4987156;28;20471;-60
2022/06/20 00:47:34;;;;;;;7.60;1.75;;;;;;;;;;4990502;28;20212;-60
2022/06/20 00:50:10;;;;;;;9.60;1.70;;;;;;;;;;4978381;28;20221;-60
2022/06/20 00:52:40;;;;;;;6.53;1.60;;;;;;;;;;5011421;28;20209;-60
2022/06/20 00:55:10;;;;;;;9.52;1.75;;;;;;;;;;5019429;28;20223;-60
2022/06/20 00:57:37;;;;;;;9.68;1.80;;;;;;;;;;5020428;28;20211;-60
2022/06/20 01:00:06;;;;;;;8.18;1.75;;;;;;;;;;5003811;28;20239;-60
2022/06/20 01:02:33;;;;;;;9.27;1.90;;;;;;;;;;4987801;28;20236;-60
2022/06/20 01:05:00;;;;;;;9.65;1.70;;;;;;;;;;5019537;28;20568;-60
2022/06/20 01:07:28;;;;;;;6.68;1.85;;;;;;;;;;5000853;28;20274;-60
2022/06/20 01:09:54;;;;;;;7.95;1.63;;;;;;;;;;5012956;28;20209;-60
2022/06/20 01:12:20;;;;;;;8.80;1.83;;;;;;;;;;5005262;28;21107;-60
2022/06/20 01:14:45;;;;;;;10.90;2.20;;;;;;;;;;4982084;28;20220;-60
2022/06/20 01:17:22;;;;;;;10.82;2.00;;;;;;;;;;4984854;28;20220;-60
2022/06/20 01:19:53;;;;;;;6.57;1.45;;;;;;;;;;4999996;28;20232;-60
2022/06/20 01:22:24;;;;;;;7.78;1.80;;;;;;;;;;5003692;28;20613;-60
2022/06/20 01:24:54;;;;;;;9.57;1.70;;;;;;;;;;5019771;28;20204;-60
2022/06/20 01:27:20;;;;;;;9.25;1.75;;;;;;;;;;5018802;28;20299;-60
2022/06/20 01:29:46;;;;;;;8.00;1.90;;;;;;;;;;5016302;28;20263;-60
2022/06/20 01:32:12;;;;;;;9.10;1.70;;;;;;;;;;4980163;28;20213;-60
2022/06/20 01:34:37;;;;;;;9.30;1.88;;;;;;;;;;4996124;28;20823;-60
2022/06/20 01:39:48;;;;;;;11.05;1.83;;;;;;;;;;5017275;28;20581;-60
2022/06/20 01:42:19;;;;;;;8.90;2.03;;;;;;;;;;5002137;28;20225;-60
2022/06/20 01:44:46;;;;;;;7.70;1.90;;;;;;;;;;4989926;28;20209;-60
2022/06/20 01:47:11;;;;;;;10.90;2.38;;;;;;;;;;5002450;28;20298;-60
2022/06/20 01:49:37;;;;;;;10.35;2.10;;;;;;;;;;5003964;28;20676;-60
2022/06/20 01:52:04;;;;;;;7.28;1.90;;;;;;;;;;4998832;28;20688;-60
2022/06/20 01:54:31;;;;;;;8.85;1.80;;;;;;;;;;4996286;28;20730;-61
2022/06/20 01:56:56;;;;;;;7.45;1.60;;;;;;;;;;4996422;28;20240;-61
2022/06/20 01:59:23;;;;;;;7.32;1.83;;;;;;;;;;4983796;28;20352;-62
2022/06/20 02:01:48;;;;;;;5.60;1.60;;;;;;;;;;5017529;28;20228;-62
2022/06/20 02:04:14;;;;;;;10.70;1.73;;;;;;;;;;5018775;28;20220;-62
2022/06/20 02:06:40;;;;;;;7.95;1.63;;;;;;;;;;5003824;28;20299;-62
2022/06/20 02:09:05;;;;;;;6.93;1.42;;;;;;;;;;5003602;28;20358;-62
2022/06/20 02:11:32;;;;;;;8.95;2.30;;;;;;;;;;5003726;28;20220;-62
2022/06/20 02:14:08;;;;;;;8.82;1.70;;;;;;;;;;4985210;28;20228;-62
2022/06/20 02:16:33;;;;;;;6.80;1.60;;;;;;;;;;5009952;28;20679;-62
2022/06/20 02:19:00;;;;;;;6.72;1.70;;;;;;;;;;5010546;28;20239;-62
2022/06/20 02:21:26;;;;;;;7.07;1.70;;;;;;;;;;5010694;28;20645;-62
2022/06/20 02:23:53;;;;;;;6.35;1.70;;;;;;;;;;5002270;28;21002;-62
2022/06/20 02:26:18;;;;;;;9.45;2.05;;;;;;;;;;5002994;28;20270;-62
2022/06/20 02:28:46;;;;;;;8.00;1.60;;;;;;;;;;5018694;28;20303;-62
2022/06/20 02:31:11;;;;;;;9.27;1.88;;;;;;;;;;5008394;28;20205;-62
2022/06/20 02:33:36;;;;;;;7.50;1.73;;;;;;;;;;4984401;28;20220;-62
2022/06/20 02:36:02;;;;;;;4.63;1.40;;;;;;;;;;4998853;28;20265;-62
2022/06/20 02:38:27;;;;;;;6.22;1.60;;;;;;;;;;4997364;28;20548;-61
2022/06/20 02:40:55;;;;;;;5.47;1.40;;;;;;;;;;4995483;28;20212;-62
2022/06/20 02:43:20;;;;;;;5.70;1.30;;;;;;;;;;4991696;28;20213;-61
2022/06/20 02:45:46;;;;;;;9.25;1.95;;;;;;;;;;4998906;28;20211;-62
2022/06/20 02:48:11;;;;;;;8.65;2.10;;;;;;;;;;5002739;28;20220;-62
2022/06/20 02:50:39;;;;;;;6.93;1.80;;;;;;;;;;5017727;28;20223;-61
2022/06/20 02:53:06;;;;;;;6.95;1.73;;;;;;;;;;5006134;28;20209;-61
2022/06/20 02:55:32;;;;;;;7.50;1.67;;;;;;;;;;5002737;28;20675;-62
2022/06/20 02:57:58;;;;;;;7.70;1.70;;;;;;;;;;5017241;28;20209;-61
2022/06/20 03:00:26;;;;;;;6.53;1.50;;;;;;;;;;4999754;28;20239;-61
2022/06/20 03:02:54;;;;;;;7.43;1.90;;;;;;;;;;4984676;28;20570;-62
2022/06/20 03:05:19;;;;;;;6.45;1.55;;;;;;;;;;4989533;28;20493;-61
2022/06/20 03:07:44;;;;;;;5.38;1.42;;;;;;;;;;4978853;28;20323;-60
2022/06/20 03:10:16;;;;;;;7.43;1.80;;;;;;;;;;4982778;28;20217;-61
2022/06/20 03:12:41;;;;;;;8.30;1.73;;;;;;;;;;4993327;28;21030;-60
2022/06/20 03:15:07;;;;;;;8.40;1.95;;;;;;;;;;4997736;28;20252;-61
2022/06/20 03:17:32;;;;;;;8.88;1.80;;;;;;;;;;4998145;28;20497;-62
2022/06/20 03:19:58;;;;;;;8.30;1.77;;;;;;;;;;4983242;28;20324;-62
2022/06/20 03:22:28;;;;;;;9.10;1.70;;;;;;;;;;5001897;28;20286;-62
2022/06/20 03:24:53;;;;;;;8.20;1.70;;;;;;;;;;5010497;28;20699;-61
2022/06/20 03:27:21;;;;;;;7.07;1.50;;;;;;;;;;5008551;28;20255;-61
2022/06/20 03:29:48;;;;;;;5.80;1.42;;;;;;;;;;4994783;28;20343;-61
2022/06/20 03:32:14;;;;;;;7.57;2.42;;;;;;;;;;4999786;28;20217;-61
2022/06/20 03:34:39;;;;;;;5.25;1.50;;;;;;;;;;4982321;28;20216;-61
2022/06/20 03:37:06;;;;;;;6.63;1.60;;;;;;;;;;4982959;28;20244;-61
2022/06/20 03:39:32;;;;;;;6.22;1.40;;;;;;;;;;5001947;28;20216;-61
2022/06/20 03:41:57;;;;;;;8.80;1.58;;;;;;;;;;5016719;28;20575;-61
2022/06/20 03:44:28;;;;;;;5.60;1.40;;;;;;;;;;4989884;28;20831;-61
2022/06/20 03:47:01;;;;;;;6.72;1.55;;;;;;;;;;5010841;28;20220;-62
2022/06/20 03:49:27;;;;;;;6.93;1.60;;;;;;;;;;5008889;28;20232;-62
2022/06/20 03:51:57;;;;;;;8.52;1.67;;;;;;;;;;4992446;28;20492;-62
2022/06/20 03:54:32;;;;;;;8.68;1.77;;;;;;;;;;5014239;28;20552;-62
2022/06/20 03:57:01;;;;;;;7.88;1.58;;;;;;;;;;5017259;28;20293;-62
2022/06/20 03:59:34;;;;;;;6.35;1.60;;;;;;;;;;5002194;28;20226;-62
2022/06/20 04:02:01;;;;;;;6.57;1.50;;;;;;;;;;5001116;28;20244;-62
2022/06/20 04:04:29;;;;;;;7.47;1.92;;;;;;;;;;5000858;28;20707;-62
2022/06/20 04:07:01;;;;;;;6.75;1.63;;;;;;;;;;5002009;28;20578;-62
2022/06/20 04:12:31;;;;;;;9.65;1.90;;;;;;;;;;4988581;28;20754;-62
2022/06/20 04:14:57;;;;;;;6.55;1.77;;;;;;;;;;4989169;28;20260;-62
2022/06/20 04:20:14;;;;;;;9.13;1.92;;;;;;;;;;5001204;28;20283;-62
2022/06/20 04:22:39;;;;;;;11.10;1.80;;;;;;;;;;5016290;28;20219;-62
2022/06/20 04:25:05;;;;;;;7.72;1.77;;;;;;;;;;5016773;28;20220;-62
2022/06/20 04:27:31;;;;;;;10.70;2.63;;;;;;;;;;5001593;28;20216;-61
2022/06/20 04:29:58;;;;;;;9.20;1.80;;;;;;;;;;5000789;28;20750;-62
2022/06/20 04:32:29;;;;;;;7.60;2.50;;;;;;;;;;4991589;28;20240;-62
2022/06/20 04:34:55;;;;;;;8.73;2.00;;;;;;;;;;4991452;28;20221;-62
2022/06/20 04:37:22;;;;;;;11.27;1.85;;;;;;;;;;4975595;28;20562;-61
2022/06/20 04:39:47;;;;;;;9.05;1.90;;;;;;;;;;4984563;28;20707;-61
2022/06/20 04:42:17;;;;;;;9.52;1.75;;;;;;;;;;4981739;28;20209;-61
2022/06/20 04:44:51;;;;;;;8.65;1.90;;;;;;;;;;4986492;28;20216;-61
2022/06/20 04:47:23;;;;;;;9.77;1.67;;;;;;;;;;4999072;28;20225;-62
2022/06/20 04:49:49;;;;;;;7.32;1.48;;;;;;;;;;4982428;28;20220;-62
2022/06/20 04:52:15;;;;;;;9.55;1.88;;;;;;;;;;4981959;28;20217;-62
2022/06/20 04:54:40;;;;;;;8.60;1.77;;;;;;;;;;4991952;28;20217;-62
2022/06/20 04:57:06;;;;;;;6.45;1.73;;;;;;;;;;4977647;28;20275;-61
2022/06/20 04:59:31;;;;;;;10.30;1.88;;;;;;;;;;4988965;28;20567;-62
2022/06/20 05:01:57;;;;;;;6.82;1.95;;;;;;;;;;4979042;28;20299;-61
2022/06/20 05:04:24;;;;;;;6.50;1.50;;;;;;;;;;4996124;28;20225;-62
2022/06/20 05:06:49;;;;;;;8.00;1.65;;;;;;;;;;4999112;28;20217;-62
2022/06/20 05:09:16;;;;;;;8.90;1.80;;;;;;;;;;4981720;28;20756;-62
2022/06/20 05:11:46;;;;;;;6.70;1.65;;;;;;;;;;4996267;28;20245;-62
2022/06/20 05:14:13;;;;;;;10.23;1.77;;;;;;;;;;4982928;28;20845;-61
2022/06/20 05:16:42;;;;;;;8.98;1.75;;;;;;;;;;5014158;28;20205;-62
2022/06/20 05:19:10;;;;;;;8.30;1.80;;;;;;;;;;4995028;28;20228;-61
2022/06/20 05:21:37;;;;;;;7.53;1.65;;;;;;;;;;4994199;28;20430;-62
2022/06/20 05:24:05;;;;;;;5.93;1.40;;;;;;;;;;4981878;28;20214;-63
2022/06/20 05:26:30;;;;;;;7.95;1.90;;;;;;;;;;4983188;28;20271;-64
2022/06/20 05:28:56;;;;;;;9.10;1.90;;;;;;;;;;5000656;28;20209;-63
2022/06/20 05:31:28;;;;;;;6.35;1.52;;;;;;;;;;5000561;28;20213;-63
2022/06/20 05:33:55;;;;;;;6.35;1.48;;;;;;;;;;5006672;28;20216;-62
2022/06/20 05:36:23;;;;;;;9.93;1.40;;;;;;;;;;5001488;28;20217;-62
2022/06/20 05:38:50;;;;;;;5.55;1.38;;;;;;;;;;5003655;28;20212;-61
2022/06/20 05:41:15;;;;;;;8.93;1.50;;;;;;;;;;4999583;28;20267;-62
2022/06/20 05:43:41;;;;;;;6.75;1.80;;;;;;;;;;5003367;28;20213;-62
2022/06/20 05:46:07;;;;;;;8.77;1.50;;;;;;;;;;5014092;28;20263;-62
2022/06/20 05:48:36;;;;;;;6.28;1.60;;;;;;;;;;5011938;28;20212;-63
2022/06/20 05:51:03;;;;;;;8.77;1.45;;;;;;;;;;5009177;28;20239;-63
2022/06/20 05:53:31;;;;;;;6.43;1.25;;;;;;;;;;5001771;28;20228;-62
2022/06/20 05:55:57;;;;;;;7.28;1.60;;;;;;;;;;5004237;28;20208;-61
2022/06/20 05:58:25;;;;;;;5.72;1.42;;;;;;;;;;5003565;28;20358;-62
2022/06/20 06:00:51;;;;;;;5.30;1.30;;;;;;;;;;4999215;28;20393;-62
2022/06/20 06:03:18;;;;;;;6.20;1.50;;;;;;;;;;4976183;28;20659;-62
2022/06/20 06:05:45;;;;;;;7.60;1.20;;;;;;;;;;4992724;28;20213;-62
2022/06/20 06:08:11;;;;;;;6.53;1.30;;;;;;;;;;4992981;28;20563;-62
2022/06/20 06:10:39;;;;;;;7.22;1.25;;;;;;;;;;4994135;28;20331;-61
2022/06/20 06:13:07;;;;;;;6.38;1.60;;;;;;;;;;5004266;28;20698;-62
2022/06/20 06:15:36;;;;;;;9.30;2.00;;;;;;;;;;4991706;28;20209;-61
2022/06/20 06:18:03;;;;;;;7.40;1.50;;;;;;;;;;5002835;28;20212;-62
2022/06/20 06:20:28;;;;;;;7.65;2.25;;;;;;;;;;5010638;28;20287;-62
2022/06/20 06:22:54;;;;;;;5.65;1.42;;;;;;;;;;5011422;28;20291;-61
2022/06/20 06:25:23;;;;;;;8.88;1.92;;;;;;;;;;5011692;28;20228;-61
2022/06/20 06:27:48;;;;;;;7.32;1.50;;;;;;;;;;5013187;28;20212;-61
2022/06/20 06:30:33;;;;;;;7.50;1.48;;;;;;;;;;5011119;28;20220;-63
2022/06/20 06:33:09;;;;;;;6.10;1.48;;;;;;;;;;5012600;28;20209;-62
2022/06/20 06:35:44;;;;;;;7.95;1.70;;;;;;;;;;5012238;28;20216;-62
2022/06/20 06:38:10;;;;;;;5.57;1.48;;;;;;;;;;5011570;28;20212;-62
2022/06/20 06:40:37;;;;;;;8.75;1.73;;;;;;;;;;5013126;28;20209;-62
2022/06/20 06:43:12;;;;;;;6.40;1.42;;;;;;;;;;5010478;28;20706;-61
2022/06/20 06:45:38;;;;;;;7.25;1.33;;;;;;;;;;5012630;28;20231;-62
2022/06/20 06:48:10;;;;;;;4.60;1.42;;;;;;;;;;5012266;28;20683;-63
2022/06/20 06:50:55;;;;;;;9.73;1.60;;;;;;;;;;5011125;28;20251;-62
2022/06/20 06:53:23;;;;;;;9.52;1.77;;;;;;;;;;5012600;28;20354;-61
2022/06/20 06:55:49;;;;;;;7.75;1.48;;;;;;;;;;5011651;28;20295;-62
2022/06/20 06:58:22;;;;;;;10.02;1.90;;;;;;;;;;5011740;28;20223;-61
2022/06/20 07:00:49;;;;;;;8.32;1.67;;;;;;;;;;5011442;28;20217;-62
2022/06/20 07:03:16;;;;;;;5.70;1.60;;;;;;;;;;5010643;28;20221;-62
2022/06/20 07:05:42;;;;;;;7.28;1.65;;;;;;;;;;5012291;28;20215;-62
2022/06/20 07:08:15;;;;;;;5.68;1.52;;;;;;;;;;5010988;28;20244;-62
2022/06/20 07:10:45;;;;;;;7.28;1.65;;;;;;;;;;5011234;28;20653;-62
2022/06/20 07:13:18;;;;;;;9.55;1.50;;;;;;;;;;5010863;28;20208;-66
2022/06/20 07:15:43;;;;;;;8.75;1.80;;;;;;;;;;5012756;28;20220;-67
2022/06/20 07:18:12;;;;;;;7.25;1.80;;;;;;;;;;5010695;28;20621;-66
2022/06/20 07:20:39;;;;;;;5.88;1.60;;;;;;;;;;5012605;28;20238;-65
2022/06/20 07:23:06;;;;;;;4.65;1.20;;;;;;;;;;5010526;28;20208;-65
2022/06/20 07:25:35;;;;;;;7.65;1.60;;;;;;;;;;5011405;28;20204;-65
2022/06/20 07:28:03;;;;;;;6.07;2.03;;;;;;;;;;5011044;28;20727;-65
2022/06/20 07:30:30;;;;;;;6.38;1.70;;;;;;;;;;5010823;28;20235;-62
2022/06/20 07:32:58;;;;;;;8.00;2.00;;;;;;;;;;5011781;28;20212;-62
2022/06/20 07:35:29;;;;;;;6.18;1.33;;;;;;;;;;5010868;28;20212;-62
2022/06/20 07:37:56;;;;;;;6.75;1.70;;;;;;;;;;5011965;28;20212;-62
2022/06/20 07:40:22;;;;;;;7.15;1.58;;;;;;;;;;5007590;28;20419;-62
2022/06/20 07:42:54;;;;;;;5.20;1.50;;;;;;;;;;5012286;28;20213;-65
2022/06/20 07:45:21;;;;;;;5.95;1.40;;;;;;;;;;5011650;28;20597;-63
2022/06/20 07:47:49;;;;;;;4.45;1.20;;;;;;;;;;5008276;28;20208;-64
2022/06/20 07:50:16;;;;;;;6.32;1.50;;;;;;;;;;5010763;28;20208;-63
2022/06/20 07:52:45;;;;;;;7.60;1.60;;;;;;;;;;5010316;28;20216;-64
2022/06/20 07:55:11;;;;;;;6.97;1.55;;;;;;;;;;5007357;28;20217;-63
2022/06/20 07:57:38;;;;;;;7.13;1.83;;;;;;;;;;5010336;28;20208;-65
2022/06/20 08:00:05;;;;;;;6.82;1.85;;;;;;;;;;5009573;28;20319;-66
2022/06/20 08:02:30;;;;;;;7.38;2.13;;;;;;;;;;5011363;28;20224;-65
2022/06/20 08:04:56;;;;;;;8.48;1.90;;;;;;;;;;5011574;28;20223;-65
2022/06/20 08:07:24;;;;;;;7.85;2.28;;;;;;;;;;5010313;28;20641;-65
2022/06/20 08:09:58;;;;;;;7.00;2.05;;;;;;;;;;5010337;28;20205;-65
2022/06/20 08:12:27;;;;;;;6.82;2.25;;;;;;;;;;5010135;28;20262;-65
2022/06/20 08:14:55;;;;;;;7.50;2.00;;;;;;;;;;5009583;28;20220;-65
2022/06/20 08:17:21;;;;;;;6.38;2.03;;;;;;;;;;5009710;28;20209;-65
2022/06/20 08:19:47;;;;;;;9.13;2.08;;;;;;;;;;4993738;28;20212;-65
2022/06/20 08:22:22;;;;;;;6.53;2.10;;;;;;;;;;5010277;28;20212;-65
2022/06/20 08:24:50;;;;;;;7.22;2.50;;;;;;;;;;5011566;28;20667;-65
2022/06/20 08:27:20;;;;;;;9.70;2.28;;;;;;;;;;5011185;28;20227;-65
2022/06/20 08:29:46;;;;;;;6.13;2.15;;;;;;;;;;5009529;28;20208;-65
2022/06/20 08:32:16;;;;;;;7.65;2.35;;;;;;;;;;5010403;28;20216;-65
2022/06/20 08:34:44;;;;;;;6.95;2.10;;;;;;;;;;5011352;28;20258;-65
2022/06/20 08:37:22;;;;;;;7.32;2.05;;;;;;;;;;5008804;28;20227;-66
2022/06/20 08:39:49;;;;;;;6.57;1.98;;;;;;;;;;5011349;28;20216;-65
2022/06/20 08:42:14;;;;;;;7.07;1.80;;;;;;;;;;5008854;28;20216;-64
2022/06/20 08:44:50;;;;;;;6.32;1.88;;;;;;;;;;5011200;28;20616;-64
2022/06/20 08:47:40;;;;;;;7.80;1.80;;;;;;;;;;5010668;28;20226;-64
2022/06/20 08:50:11;;;;;;;8.63;2.17;;;;;;;;;;5008928;28;20250;-64
2022/06/20 08:52:55;;;;;;;7.65;2.10;;;;;;;;;;5013531;28;20223;-64
2022/06/20 08:55:33;;;;;;;8.40;2.30;;;;;;;;;;5013190;28;20286;-64
2022/06/20 08:58:03;;;;;;;7.15;1.80;;;;;;;;;;5013116;28;20267;-64
2022/06/20 09:00:37;;;;;;;7.50;2.40;;;;;;;;;;5014942;28;20712;-64
2022/06/20 09:03:08;;;;;;;6.93;1.98;;;;;;;;;;5014627;28;20277;-64
2022/06/20 09:05:40;;;;;;;6.15;1.73;;;;;;;;;;5013046;28;20216;-64
2022/06/20 09:08:18;;;;;;;8.52;1.70;;;;;;;;;;5014451;28;20214;-63
2022/06/20 09:10:48;;;;;;;10.13;1.80;;;;;;;;;;5012990;28;20657;-64
2022/06/20 09:13:24;;;;;;;7.97;2.00;;;;;;;;;;5014821;28;20238;-64
2022/06/20 09:15:52;;;;;;;7.07;1.70;;;;;;;;;;5013467;28;20200;-64
2022/06/20 09:18:33;;;;;;;8.20;1.75;;;;;;;;;;5013534;28;20244;-64
2022/06/20 09:21:04;;;;;;;10.93;1.98;;;;;;;;;;5013949;28;20315;-66
2022/06/20 09:23:35;;;;;;;6.78;2.00;;;;;;;;;;5010747;28;20287;-66
2022/06/20 09:26:03;;;;;;;5.85;1.52;;;;;;;;;;5013344;28;20658;-64
2022/06/20 09:28:33;;;;;;;5.65;1.67;;;;;;;;;;5010899;28;20204;-64
2022/06/20 09:31:10;;;;;;;6.63;1.70;;;;;;;;;;5012937;28;20683;-64
2022/06/20 09:33:39;;;;;;;4.95;1.70;;;;;;;;;;5012115;28;20213;-64
2022/06/20 09:36:04;;;;;;;7.97;1.85;;;;;;;;;;5014206;28;20271;-64
2022/06/20 09:38:39;;;;;;;6.00;1.90;;;;;;;;;;5013612;28;20260;-64
2022/06/20 09:41:06;;;;;;;8.25;1.80;;;;;;;;;;5012391;28;20235;-64
2022/06/20 09:43:37;;;;;;;6.30;2.08;;;;;;;;;;5013716;28;20671;-64
2022/06/20 09:46:09;;;;;;;7.53;2.10;;;;;;;;;;5012946;28;20730;-63
2022/06/20 09:48:38;;;;;;;9.30;2.10;;;;;;;;;;5013108;28;20225;-63
2022/06/20 09:51:03;;;;;;;9.15;2.00;;;;;;;;;;5013792;28;20223;-63
2022/06/20 09:53:34;;;;;;;7.47;2.10;;;;;;;;;;5012606;28;20212;-63
2022/06/20 09:56:07;;;;;;;8.52;2.10;;;;;;;;;;5012207;28;20224;-71
2022/06/20 09:58:32;;;;;;;5.60;1.50;;;;;;;;;;5013009;28;20374;-70
2022/06/20 10:01:06;;;;;;;5.43;1.60;;;;;;;;;;5013432;28;20690;-71
2022/06/20 10:03:41;;;;;;;7.45;1.70;;;;;;;;;;5012665;28;20227;-72
2022/06/20 10:06:10;;;;;;;6.10;1.52;;;;;;;;;;5012069;28;20219;-71
2022/06/20 10:08:40;;;;;;;5.82;1.55;;;;;;;;;;5011476;28;20509;-72
2022/06/20 10:11:08;;;;;;;5.38;1.92;;;;;;;;;;5011851;28;20217;-70
2022/06/20 10:13:40;;;;;;;5.68;1.88;;;;;;;;;;5012259;28;20216;-71
2022/06/20 10:16:10;;;;;;;6.32;1.88;;;;;;;;;;5012091;28;20687;-70
2022/06/20 10:18:35;;;;;;;6.10;1.58;;;;;;;;;;5011933;28;20238;-71
2022/06/20 10:21:11;;;;;;;6.03;1.50;;;;;;;;;;5012275;28;20221;-70
2022/06/20 10:23:43;;;;;;;7.82;1.80;;;;;;;;;;5012238;28;20215;-74
2022/06/20 10:26:19;;;;;;;7.05;1.50;;;;;;;;;;5013359;28;20216;-71
2022/06/20 10:28:46;;;;;;;4.35;1.30;;;;;;;;;;5011035;28;20641;-73
2022/06/20 10:31:18;;;;;;;5.30;1.40;;;;;;;;;;5011397;28;20224;-72
2022/06/20 10:33:58;;;;;;;3.45;1.30;;;;;;;;;;5013062;28;20235;-74
2022/06/20 10:36:30;;;;;;;3.85;1.25;;;;;;;;;;5010847;28;20219;-74
2022/06/20 10:39:06;;;;;;;4.93;1.23;;;;;;;;;;5013029;28;20830;-71
2022/06/20 10:41:32;;;;;;;4.55;1.25;;;;;;;;;;5012399;28;20212;-72
2022/06/20 10:44:05;;;;;;;2.80;1.00;;;;;;;;;;5010805;28;20227;-71
2022/06/20 10:46:30;;;;;;;5.97;1.65;;;;;;;;;;5010987;28;20571;-71
2022/06/20 10:49:05;;;;;;;4.55;1.30;;;;;;;;;;5012471;28;20212;-72
2022/06/20 10:51:30;;;;;;;7.78;1.50;;;;;;;;;;5012875;28;20290;-73
2022/06/20 10:54:14;;;;;;;3.67;1.10;;;;;;;;;;5012771;28;20299;-74
2022/06/20 10:56:42;;;;;;;5.10;1.13;;;;;;;;;;5011316;28;20640;-73
2022/06/20 10:59:11;;;;;;;4.53;1.42;;;;;;;;;;5012224;28;20310;-71
2022/06/20 11:01:40;;;;;;;2.95;1.00;;;;;;;;;;5012974;28;20683;-71
2022/06/20 11:04:14;;;;;;;3.97;1.10;;;;;;;;;;5010562;28;20314;-71
2022/06/20 11:06:47;;;;;;;4.63;1.00;;;;;;;;;;5011376;28;20679;-72
2022/06/20 11:09:14;;;;;;;5.47;1.38;;;;;;;;;;5010652;28;20208;-72
2022/06/20 11:11:45;;;;;;;4.15;1.35;;;;;;;;;;5011556;28;20703;-71
2022/06/20 11:14:17;;;;;;;5.18;1.23;;;;;;;;;;5012013;28;20259;-72
2022/06/20 11:16:43;;;;;;;3.83;1.20;;;;;;;;;;5011359;28;20208;-71
2022/06/20 11:19:19;;;;;;;4.13;1.00;;;;;;;;;;5010910;28;20237;-70
2022/06/20 11:21:44;;;;;;;4.13;1.27;;;;;;;;;;5012392;28;20212;-72
2022/06/20 11:24:15;;;;;;;3.70;1.20;;;;;;;;;;5011075;28;20363;-72
2022/06/20 11:26:41;;;;;;;5.65;1.40;;;;;;;;;;5010986;28;20201;-71
2022/06/20 11:29:23;;;;;;;5.57;1.40;;;;;;;;;;5011818;28;20227;-71
2022/06/20 11:31:52;;;;;;;4.55;1.50;;;;;;;;;;5011505;28;20220;-71
2022/06/20 11:34:26;;;;;;;4.55;1.20;;;;;;;;;;5010311;28;20212;-73
2022/06/20 11:36:56;;;;;;;4.80;1.20;;;;;;;;;;5010982;28;20215;-72
2022/06/20 11:39:28;;;;;;;6.28;1.50;;;;;;;;;;5010209;28;20233;-68
2022/06/20 11:41:56;;;;;;;6.88;1.70;;;;;;;;;;5009503;28;20342;-71
2022/06/20 11:44:40;;;;;;;7.30;1.70;;;;;;;;;;5011284;28;20204;-71
2022/06/20 11:47:06;;;;;;;8.30;1.75;;;;;;;;;;5005363;28;20220;-70
2022/06/20 11:49:35;;;;;;;6.97;1.83;;;;;;;;;;5012095;28;20204;-72
2022/06/20 11:52:03;;;;;;;6.82;1.60;;;;;;;;;;5010496;28;20679;-68
2022/06/20 11:54:39;;;;;;;6.80;1.60;;;;;;;;;;4993829;28;20583;-71
2022/06/20 11:57:11;;;;;;;6.22;1.40;;;;;;;;;;5009619;28;20216;-70
2022/06/20 11:59:53;;;;;;;6.50;1.50;;;;;;;;;;5010806;28;20231;-72
2022/06/20 12:02:21;;;;;;;7.18;1.40;;;;;;;;;;5010107;28;20240;-72
2022/06/20 12:04:53;;;;;;;6.32;1.60;;;;;;;;;;5012024;28;20216;-71
2022/06/20 12:07:30;;;;;;;6.78;1.40;;;;;;;;;;5009139;28;20258;-71
2022/06/20 12:09:57;;;;;;;7.45;1.35;;;;;;;;;;5011322;28;20208;-70
2022/06/20 12:12:32;;;;;;;6.00;1.50;;;;;;;;;;5009786;28;20239;-71
2022/06/20 12:15:02;;;;;;;7.43;1.63;;;;;;;;;;5009609;28;20226;-74
2022/06/20 12:17:28;;;;;;;7.18;1.50;;;;;;;;;;5006925;28;20208;-72
2022/06/20 12:25:35;;;;;;;7.60;1.67;;;;;;;;;;5005410;28;20288;-70
2022/06/20 12:28:00;;;;;;;5.93;1.30;;;;;;;;;;5020752;28;20681;-67
2022/06/20 12:30:26;;;;;;;4.38;1.40;;;;;;;;;;5013543;28;20220;-70
2022/06/20 12:32:53;;;;;;;4.53;1.30;;;;;;;;;;5013759;28;20711;-71
2022/06/20 12:35:20;;;;;;;7.03;1.27;;;;;;;;;;5016169;28;20687;-70
2022/06/20 12:37:48;;;;;;;6.63;1.58;;;;;;;;;;5017092;28;20243;-71
2022/06/20 12:40:22;;;;;;;4.07;1.40;;;;;;;;;;5016157;28;20228;-72
2022/06/20 12:42:52;;;;;;;6.47;1.33;;;;;;;;;;5016857;28;20207;-71
2022/06/20 12:45:18;;;;;;;6.03;1.70;;;;;;;;;;5000920;28;20205;-69
2022/06/20 12:47:51;;;;;;;6.13;1.50;;;;;;;;;;5012456;28;20209;-69
2022/06/20 12:50:17;;;;;;;5.05;1.45;;;;;;;;;;4997408;28;20220;-70
2022/06/20 12:52:44;;;;;;;5.53;1.40;;;;;;;;;;4998517;28;20616;-70
2022/06/20 12:55:13;;;;;;;7.57;1.60;;;;;;;;;;4997754;28;20209;-70
2022/06/20 12:57:46;;;;;;;5.97;1.27;;;;;;;;;;4995646;28;20692;-69
2022/06/20 13:00:14;;;;;;;7.65;1.60;;;;;;;;;;4996273;28;20232;-67
2022/06/20 13:02:40;;;;;;;7.82;1.33;;;;;;;;;;4997417;28;20225;-70
2022/06/20 13:05:20;;;;;;;6.05;1.60;;;;;;;;;;4997949;28;20692;-68
2022/06/20 13:07:45;;;;;;;4.72;1.45;;;;;;;;;;4998218;28;20287;-69
2022/06/20 13:10:20;;;;;;;6.47;1.23;;;;;;;;;;4997005;28;20225;-70
2022/06/20 13:12:51;;;;;;;5.75;1.75;;;;;;;;;;4998173;28;20574;-69
2022/06/20 13:15:29;;;;;;;8.20;1.92;;;;;;;;;;4996564;28;20236;-69
2022/06/20 13:17:59;;;;;;;7.38;1.60;;;;;;;;;;4996013;28;20204;-70
2022/06/20 13:20:33;;;;;;;5.75;1.60;;;;;;;;;;4997411;28;20221;-70
2022/06/20 13:23:04;;;;;;;4.97;1.42;;;;;;;;;;4996763;28;20693;-69
2022/06/20 13:25:35;;;;;;;8.98;1.55;;;;;;;;;;5003186;28;20209;-70
2022/06/20 13:28:16;;;;;;;7.47;1.52;;;;;;;;;;4996841;28;20233;-69
2022/06/20 13:31:04;;;;;;;7.13;1.75;;;;;;;;;;5001165;28;20204;-69
2022/06/20 13:33:39;;;;;;;7.55;1.60;;;;;;;;;;5008403;28;20671;-68
2022/06/20 13:36:14;;;;;;;8.30;1.98;;;;;;;;;;5016130;28;20212;-67
2022/06/20 13:38:44;;;;;;;6.45;1.70;;;;;;;;;;5012338;28;20247;-68
2022/06/20 13:41:23;;;;;;;7.90;1.75;;;;;;;;;;5011998;28;20664;-70
2022/06/20 13:43:57;;;;;;;8.30;1.80;;;;;;;;;;5007763;28;20219;-66
2022/06/20 13:46:25;;;;;;;7.93;1.65;;;;;;;;;;5004476;28;20209;-69
2022/06/20 13:48:55;;;;;;;6.00;1.80;;;;;;;;;;5007801;28;20279;-68
2022/06/20 13:51:21;;;;;;;8.40;2.03;;;;;;;;;;4994032;28;20287;-68
2022/06/20 13:53:50;;;;;;;6.78;1.92;;;;;;;;;;4992314;28;20292;-69
2022/06/20 13:56:16;;;;;;;6.20;2.03;;;;;;;;;;4992234;28;20205;-68
2022/06/20 13:58:53;;;;;;;7.10;1.88;;;;;;;;;;4993706;28;20320;-69
2022/06/20 14:01:19;;;;;;;6.65;1.90;;;;;;;;;;4994001;28;20215;-70
2022/06/20 14:03:49;;;;;;;9.27;2.20;;;;;;;;;;4994313;28;20323;-67
2022/06/20 14:06:16;;;;;;;7.72;2.25;;;;;;;;;;4992905;28;20217;-67
2022/06/20 14:08:43;;;;;;;6.50;1.52;;;;;;;;;;4992949;28;20205;-68
2022/06/20 14:11:21;;;;;;;6.05;1.60;;;;;;;;;;4992249;28;20661;-68
2022/06/20 14:13:46;;;;;;;5.60;1.60;;;;;;;;;;4992202;28;20545;-68
2022/06/20 14:16:26;;;;;;;6.78;1.60;;;;;;;;;;4992593;28;20252;-69
2022/06/20 14:18:53;;;;;;;6.03;1.50;;;;;;;;;;4992446;28;20698;-67
2022/06/20 14:21:19;;;;;;;6.63;1.80;;;;;;;;;;4992735;28;20683;-67
2022/06/20 14:23:46;;;;;;;7.00;1.70;;;;;;;;;;4994032;28;20217;-68
2022/06/20 14:26:34;;;;;;;6.32;1.42;;;;;;;;;;4992168;28;20240;-68
2022/06/20 14:29:01;;;;;;;6.18;1.80;;;;;;;;;;4992908;28;20309;-68
2022/06/20 14:31:29;;;;;;;6.75;1.73;;;;;;;;;;5004600;28;20621;-70
2022/06/20 14:33:56;;;;;;;5.43;1.20;;;;;;;;;;5012440;28;20238;-70
2022/06/20 14:36:30;;;;;;;5.78;1.17;;;;;;;;;;5011885;28;20216;-70
2022/06/20 14:38:57;;;;;;;4.82;1.60;;;;;;;;;;5013656;28;20852;-70
2022/06/20 14:41:44;;;;;;;7.28;1.70;;;;;;;;;;5010476;28;20216;-69
2022/06/20 14:44:17;;;;;;;5.60;1.60;;;;;;;;;;5002051;28;20313;-69
2022/06/20 14:46:50;;;;;;;5.15;1.45;;;;;;;;;;5000487;28;20623;-69
2022/06/20 14:49:20;;;;;;;4.20;1.40;;;;;;;;;;4992090;28;20299;-70
2022/06/20 14:51:46;;;;;;;4.45;1.38;;;;;;;;;;4993590;28;20383;-70
2022/06/20 14:54:21;;;;;;;5.78;1.40;;;;;;;;;;4991637;28;20711;-70
2022/06/20 14:56:47;;;;;;;6.47;1.60;;;;;;;;;;4990811;28;20246;-69
2022/06/20 14:59:13;;;;;;;7.25;1.30;;;;;;;;;;4992615;28;20562;-68
2022/06/20 15:01:40;;;;;;;6.55;1.50;;;;;;;;;;4994310;28;20228;-69
2022/06/20 15:04:07;;;;;;;6.55;1.40;;;;;;;;;;4990542;28;20212;-68
2022/06/20 15:06:35;;;;;;;7.45;1.45;;;;;;;;;;4981917;28;20824;-68
2022/06/20 15:09:03;;;;;;;3.30;1.40;;;;;;;;;;4998236;28;20213;-69